sensor_id;sensor_type;location;lat;lon;timestamp;temperature;humidity
29453;DHT22;16424;50.956;5.320;2023-02-26T00:02:10;1.30;99.90
29453;DHT22;16424;50.956;5.320;2023-02-26T00:04:36;1.30;99.90
29453;DHT22;16424;50.956;5.320;2023-02-26T00:07:02;1.30;99.90
29453;DHT22;16424;50.956;5.320;2023-02-26T00:09:29;1.40;99.90
29453;DHT22;16424;50.956;5.320;2023-02-26T00:11:56;1.40;99.90
29453;DHT22;16424;50.956;5.320;2023-02-26T00:14:22;1.40;99.90
29453;DHT22;16424;50.956;5.320;2023-02-26T00:19:39;1.40;99.90
29453;DHT22;16424;50.956;5.320;2023-02-26T00:22:05;1.40;99.90
29453;DHT22;16424;50.956;5.320;2023-02-26T00:24:31;1.30;99.90
29453;DHT22;16424;50.956;5.320;2023-02-26T00:26:57;1.30;99.90
29453;DHT22;16424;50.956;5.320;2023-02-26T00:29:23;1.20;99.90
29453;DHT22;16424;50.956;5.320;2023-02-26T00:31:49;1.10;99.90
29453;DHT22;16424;50.956;5.320;2023-02-26T00:34:15;1.10;99.90
29453;DHT22;16424;50.956;5.320;2023-02-26T00:39:44;1.00;99.90
29453;DHT22;16424;50.956;5.320;2023-02-26T00:42:12;0.90;99.90
29453;DHT22;16424;50.956;5.320;2023-02-26T00:44:39;0.80;99.90
29453;DHT22;16424;50.956;5.320;2023-02-26T00:52:23;0.70;99.90
29453;DHT22;16424;50.956;5.320;2023-02-26T00:54:50;0.70;99.90
29453;DHT22;16424;50.956;5.320;2023-02-26T00:57:16;0.70;99.90
29453;DHT22;16424;50.956;5.320;2023-02-26T00:59:41;0.70;99.90
29453;DHT22;16424;50.956;5.320;2023-02-26T01:02:07;0.70;99.90
29453;DHT22;16424;50.956;5.320;2023-02-26T01:04:33;0.70;99.90
29453;DHT22;16424;50.956;5.320;2023-02-26T01:06:59;0.70;99.90
29453;DHT22;16424;50.956;5.320;2023-02-26T01:09:26;0.70;99.90
29453;DHT22;16424;50.956;5.320;2023-02-26T01:11:53;0.70;99.90
29453;DHT22;16424;50.956;5.320;2023-02-26T01:14:20;0.60;99.90
29453;DHT22;16424;50.956;5.320;2023-02-26T01:16:56;0.60;99.90
29453;DHT22;16424;50.956;5.320;2023-02-26T01:22:53;0.50;99.90
29453;DHT22;16424;50.956;5.320;2023-02-26T01:28:02;0.40;99.90
29453;DHT22;16424;50.956;5.320;2023-02-26T01:30:28;0.40;99.90
29453;DHT22;16424;50.956;5.320;2023-02-26T01:35:41;0.40;99.90
29453;DHT22;16424;50.956;5.320;2023-02-26T01:43:10;0.40;99.90
29453;DHT22;16424;50.956;5.320;2023-02-26T01:46:00;0.40;99.90
29453;DHT22;16424;50.956;5.320;2023-02-26T01:48:58;0.50;99.90
29453;DHT22;16424;50.956;5.320;2023-02-26T01:51:52;0.60;99.90
29453;DHT22;16424;50.956;5.320;2023-02-26T01:54:23;0.60;99.90
29453;DHT22;16424;50.956;5.320;2023-02-26T01:56:55;0.70;99.90
29453;DHT22;16424;50.956;5.320;2023-02-26T01:59:22;0.70;99.90
29453;DHT22;16424;50.956;5.320;2023-02-26T02:01:53;0.70;99.90
29453;DHT22;16424;50.956;5.320;2023-02-26T02:04:19;0.80;99.90
29453;DHT22;16424;50.956;5.320;2023-02-26T02:06:45;0.80;99.90
29453;DHT22;16424;50.956;5.320;2023-02-26T02:09:11;0.70;99.90
29453;DHT22;16424;50.956;5.320;2023-02-26T02:23:19;0.90;99.90
29453;DHT22;16424;50.956;5.320;2023-02-26T02:31:56;0.90;99.90
29453;DHT22;16424;50.956;5.320;2023-02-26T02:34:35;0.80;99.90
29453;DHT22;16424;50.956;5.320;2023-02-26T02:39:48;0.90;99.90
29453;DHT22;16424;50.956;5.320;2023-02-26T02:42:31;0.90;99.90
29453;DHT22;16424;50.956;5.320;2023-02-26T02:45:02;0.90;99.90
29453;DHT22;16424;50.956;5.320;2023-02-26T02:47:31;1.00;99.90
29453;DHT22;16424;50.956;5.320;2023-02-26T02:50:14;1.10;99.90
29453;DHT22;16424;50.956;5.320;2023-02-26T02:52:51;1.00;99.90
29453;DHT22;16424;50.956;5.320;2023-02-26T02:55:30;1.00;99.90
29453;DHT22;16424;50.956;5.320;2023-02-26T02:58:03;1.00;99.90
29453;DHT22;16424;50.956;5.320;2023-02-26T03:00:34;1.10;99.90
29453;DHT22;16424;50.956;5.320;2023-02-26T03:03:19;1.10;99.90
29453;DHT22;16424;50.956;5.320;2023-02-26T03:05:49;1.00;99.90
29453;DHT22;16424;50.956;5.320;2023-02-26T03:08:17;1.00;99.90
29453;DHT22;16424;50.956;5.320;2023-02-26T03:10:45;1.00;99.90
29453;DHT22;16424;50.956;5.320;2023-02-26T03:13:24;0.90;99.90
29453;DHT22;16424;50.956;5.320;2023-02-26T03:21:02;0.90;99.90
29453;DHT22;16424;50.956;5.320;2023-02-26T03:23:42;1.00;99.90
29453;DHT22;16424;50.956;5.320;2023-02-26T03:26:14;0.90;99.90
29453;DHT22;16424;50.956;5.320;2023-02-26T03:28:50;0.90;99.90
29453;DHT22;16424;50.956;5.320;2023-02-26T03:31:26;0.90;99.90
29453;DHT22;16424;50.956;5.320;2023-02-26T03:34:06;1.00;99.90
29453;DHT22;16424;50.956;5.320;2023-02-26T03:37:03;1.00;99.90
29453;DHT22;16424;50.956;5.320;2023-02-26T03:39:36;1.00;99.90
29453;DHT22;16424;50.956;5.320;2023-02-26T03:44:42;0.90;99.90
29453;DHT22;16424;50.956;5.320;2023-02-26T03:47:12;0.90;99.90
29453;DHT22;16424;50.956;5.320;2023-02-26T03:49:43;0.90;99.90
29453;DHT22;16424;50.956;5.320;2023-02-26T03:52:11;0.90;99.90
29453;DHT22;16424;50.956;5.320;2023-02-26T03:57:24;0.90;99.90
29453;DHT22;16424;50.956;5.320;2023-02-26T03:59:50;0.80;99.90
29453;DHT22;16424;50.956;5.320;2023-02-26T04:02:29;0.80;99.90
29453;DHT22;16424;50.956;5.320;2023-02-26T04:05:05;0.80;99.90
29453;DHT22;16424;50.956;5.320;2023-02-26T04:07:32;0.80;99.90
29453;DHT22;16424;50.956;5.320;2023-02-26T04:09:58;0.80;99.90
29453;DHT22;16424;50.956;5.320;2023-02-26T04:12:26;0.90;99.90
29453;DHT22;16424;50.956;5.320;2023-02-26T04:14:52;0.80;99.90
29453;DHT22;16424;50.956;5.320;2023-02-26T04:17:18;0.90;99.90
29453;DHT22;16424;50.956;5.320;2023-02-26T04:19:44;0.80;99.90
29453;DHT22;16424;50.956;5.320;2023-02-26T04:22:09;0.80;99.90
29453;DHT22;16424;50.956;5.320;2023-02-26T04:24:35;0.70;99.90
29453;DHT22;16424;50.956;5.320;2023-02-26T04:27:01;0.60;99.90
29453;DHT22;16424;50.956;5.320;2023-02-26T04:29:26;0.60;99.90
29453;DHT22;16424;50.956;5.320;2023-02-26T04:31:53;0.60;99.90
29453;DHT22;16424;50.956;5.320;2023-02-26T04:34:18;0.60;99.90
29453;DHT22;16424;50.956;5.320;2023-02-26T04:36:44;0.60;99.90
29453;DHT22;16424;50.956;5.320;2023-02-26T04:39:10;0.60;99.90
29453;DHT22;16424;50.956;5.320;2023-02-26T04:41:37;0.50;99.90
29453;DHT22;16424;50.956;5.320;2023-02-26T04:44:03;0.50;99.90
29453;DHT22;16424;50.956;5.320;2023-02-26T04:46:29;0.40;99.90
29453;DHT22;16424;50.956;5.320;2023-02-26T04:48:55;0.40;99.90
29453;DHT22;16424;50.956;5.320;2023-02-26T04:51:21;0.40;99.90
29453;DHT22;16424;50.956;5.320;2023-02-26T04:53:47;0.40;99.90
29453;DHT22;16424;50.956;5.320;2023-02-26T04:56:13;0.40;99.90
29453;DHT22;16424;50.956;5.320;2023-02-26T04:58:39;0.50;99.90
29453;DHT22;16424;50.956;5.320;2023-02-26T05:01:05;0.40;99.90
29453;DHT22;16424;50.956;5.320;2023-02-26T05:03:30;0.40;99.90
29453;DHT22;16424;50.956;5.320;2023-02-26T05:05:56;0.40;99.90
29453;DHT22;16424;50.956;5.320;2023-02-26T05:08:22;0.40;99.90
29453;DHT22;16424;50.956;5.320;2023-02-26T05:10:50;0.40;99.90
29453;DHT22;16424;50.956;5.320;2023-02-26T05:13:16;0.50;99.90
29453;DHT22;16424;50.956;5.320;2023-02-26T05:15:42;0.40;99.90
29453;DHT22;16424;50.956;5.320;2023-02-26T05:18:08;0.40;99.90
29453;DHT22;16424;50.956;5.320;2023-02-26T05:20:34;0.40;99.90
29453;DHT22;16424;50.956;5.320;2023-02-26T05:22:59;0.40;99.90
29453;DHT22;16424;50.956;5.320;2023-02-26T05:25:25;0.40;99.90
29453;DHT22;16424;50.956;5.320;2023-02-26T05:27:51;0.40;99.90
29453;DHT22;16424;50.956;5.320;2023-02-26T05:30:16;0.30;99.90
29453;DHT22;16424;50.956;5.320;2023-02-26T05:32:43;0.30;99.90
29453;DHT22;16424;50.956;5.320;2023-02-26T05:35:09;0.30;99.90
29453;DHT22;16424;50.956;5.320;2023-02-26T05:37:36;0.30;99.90
29453;DHT22;16424;50.956;5.320;2023-02-26T05:40:04;0.20;99.90
29453;DHT22;16424;50.956;5.320;2023-02-26T05:42:30;0.20;99.90
29453;DHT22;16424;50.956;5.320;2023-02-26T05:44:55;0.20;99.90
29453;DHT22;16424;50.956;5.320;2023-02-26T05:47:22;0.20;99.90
29453;DHT22;16424;50.956;5.320;2023-02-26T05:49:48;0.10;99.90
29453;DHT22;16424;50.956;5.320;2023-02-26T05:52:14;0.10;99.90
29453;DHT22;16424;50.956;5.320;2023-02-26T05:54:40;0.10;99.90
29453;DHT22;16424;50.956;5.320;2023-02-26T05:57:06;0.10;99.90
29453;DHT22;16424;50.956;5.320;2023-02-26T05:59:31;0.10;99.90
29453;DHT22;16424;50.956;5.320;2023-02-26T06:01:57;0.00;99.90
29453;DHT22;16424;50.956;5.320;2023-02-26T06:04:23;0.10;99.90
29453;DHT22;16424;50.956;5.320;2023-02-26T06:06:48;0.10;99.90
29453;DHT22;16424;50.956;5.320;2023-02-26T06:09:14;0.00;99.90
29453;DHT22;16424;50.956;5.320;2023-02-26T06:11:40;0.00;99.90
29453;DHT22;16424;50.956;5.320;2023-02-26T06:14:05;0.00;99.90
29453;DHT22;16424;50.956;5.320;2023-02-26T06:16:31;0.00;99.90
29453;DHT22;16424;50.956;5.320;2023-02-26T06:18:57;0.10;99.90
29453;DHT22;16424;50.956;5.320;2023-02-26T06:21:23;0.10;99.90
29453;DHT22;16424;50.956;5.320;2023-02-26T06:23:49;0.10;99.90
29453;DHT22;16424;50.956;5.320;2023-02-26T06:26:14;0.10;99.90
29453;DHT22;16424;50.956;5.320;2023-02-26T06:28:40;0.00;99.90
29453;DHT22;16424;50.956;5.320;2023-02-26T06:31:06;0.00;99.90
29453;DHT22;16424;50.956;5.320;2023-02-26T06:33:31;0.10;99.90
29453;DHT22;16424;50.956;5.320;2023-02-26T06:35:57;0.20;99.90
29453;DHT22;16424;50.956;5.320;2023-02-26T06:38:24;0.10;99.90
29453;DHT22;16424;50.956;5.320;2023-02-26T06:40:50;0.00;99.90
29453;DHT22;16424;50.956;5.320;2023-02-26T06:43:16;0.10;99.90
29453;DHT22;16424;50.956;5.320;2023-02-26T06:45:41;0.10;99.90
29453;DHT22;16424;50.956;5.320;2023-02-26T06:48:07;0.10;99.90
29453;DHT22;16424;50.956;5.320;2023-02-26T06:50:33;0.20;99.90
29453;DHT22;16424;50.956;5.320;2023-02-26T06:52:58;0.20;99.90
29453;DHT22;16424;50.956;5.320;2023-02-26T06:55:24;0.30;99.90
29453;DHT22;16424;50.956;5.320;2023-02-26T06:57:55;0.30;99.90
29453;DHT22;16424;50.956;5.320;2023-02-26T07:00:21;0.40;99.90
29453;DHT22;16424;50.956;5.320;2023-02-26T07:02:49;0.50;99.90
29453;DHT22;16424;50.956;5.320;2023-02-26T07:05:14;0.70;99.90
29453;DHT22;16424;50.956;5.320;2023-02-26T07:07:40;0.90;99.90
29453;DHT22;16424;50.956;5.320;2023-02-26T07:10:07;1.10;99.90
29453;DHT22;16424;50.956;5.320;2023-02-26T07:12:33;1.50;99.90
29453;DHT22;16424;50.956;5.320;2023-02-26T07:14:58;1.70;99.90
29453;DHT22;16424;50.956;5.320;2023-02-26T07:17:24;1.70;99.90
29453;DHT22;16424;50.956;5.320;2023-02-26T07:19:51;1.80;99.90
29453;DHT22;16424;50.956;5.320;2023-02-26T07:22:18;2.10;99.90
29453;DHT22;16424;50.956;5.320;2023-02-26T07:24:44;2.30;99.90
29453;DHT22;16424;50.956;5.320;2023-02-26T07:27:10;2.50;99.90
29453;DHT22;16424;50.956;5.320;2023-02-26T07:29:36;2.90;99.90
29453;DHT22;16424;50.956;5.320;2023-02-26T07:32:03;3.10;99.90
29453;DHT22;16424;50.956;5.320;2023-02-26T07:34:28;2.80;99.90
29453;DHT22;16424;50.956;5.320;2023-02-26T07:36:54;2.70;99.90
29453;DHT22;16424;50.956;5.320;2023-02-26T07:39:20;3.10;99.90
29453;DHT22;16424;50.956;5.320;2023-02-26T07:41:45;3.70;99.90
29453;DHT22;16424;50.956;5.320;2023-02-26T07:44:11;4.10;99.90
29453;DHT22;16424;50.956;5.320;2023-02-26T07:46:37;4.40;99.90
29453;DHT22;16424;50.956;5.320;2023-02-26T07:49:02;4.80;99.90
29453;DHT22;16424;50.956;5.320;2023-02-26T07:51:28;5.00;99.90
29453;DHT22;16424;50.956;5.320;2023-02-26T07:53:54;4.40;99.90
29453;DHT22;16424;50.956;5.320;2023-02-26T07:56:19;4.30;99.90
29453;DHT22;16424;50.956;5.320;2023-02-26T07:58:45;4.40;99.90
29453;DHT22;16424;50.956;5.320;2023-02-26T08:01:10;4.60;99.90
29453;DHT22;16424;50.956;5.320;2023-02-26T08:03:36;5.00;99.90
29453;DHT22;16424;50.956;5.320;2023-02-26T08:06:02;4.90;99.90
29453;DHT22;16424;50.956;5.320;2023-02-26T08:08:29;4.50;99.90
29453;DHT22;16424;50.956;5.320;2023-02-26T08:10:54;4.40;99.90
29453;DHT22;16424;50.956;5.320;2023-02-26T08:13:20;4.40;99.90
29453;DHT22;16424;50.956;5.320;2023-02-26T08:15:49;4.60;99.90
29453;DHT22;16424;50.956;5.320;2023-02-26T08:18:15;4.90;99.90
29453;DHT22;16424;50.956;5.320;2023-02-26T08:20:40;5.60;99.90
29453;DHT22;16424;50.956;5.320;2023-02-26T08:23:06;5.60;99.90
29453;DHT22;16424;50.956;5.320;2023-02-26T08:25:32;5.50;99.90
29453;DHT22;16424;50.956;5.320;2023-02-26T08:27:57;4.60;99.90
29453;DHT22;16424;50.956;5.320;2023-02-26T08:30:23;4.60;99.90
29453;DHT22;16424;50.956;5.320;2023-02-26T08:32:49;3.90;99.90
29453;DHT22;16424;50.956;5.320;2023-02-26T08:35:15;3.30;99.90
29453;DHT22;16424;50.956;5.320;2023-02-26T08:37:41;3.60;99.90
29453;DHT22;16424;50.956;5.320;2023-02-26T08:40:09;3.40;99.90
29453;DHT22;16424;50.956;5.320;2023-02-26T08:42:35;3.90;99.90
29453;DHT22;16424;50.956;5.320;2023-02-26T08:45:00;3.80;99.90
29453;DHT22;16424;50.956;5.320;2023-02-26T08:47:26;4.00;99.90
29453;DHT22;16424;50.956;5.320;2023-02-26T08:49:52;4.20;99.90
29453;DHT22;16424;50.956;5.320;2023-02-26T08:52:19;4.20;99.90
29453;DHT22;16424;50.956;5.320;2023-02-26T08:54:45;4.80;99.90
29453;DHT22;16424;50.956;5.320;2023-02-26T08:57:10;5.30;99.90
29453;DHT22;16424;50.956;5.320;2023-02-26T08:59:36;4.70;99.90
29453;DHT22;16424;50.956;5.320;2023-02-26T09:02:02;4.70;99.90
29453;DHT22;16424;50.956;5.320;2023-02-26T09:04:27;5.00;99.90
29453;DHT22;16424;50.956;5.320;2023-02-26T09:06:53;4.90;99.90
29453;DHT22;16424;50.956;5.320;2023-02-26T09:09:19;4.80;99.90
29453;DHT22;16424;50.956;5.320;2023-02-26T09:11:45;4.90;99.90
29453;DHT22;16424;50.956;5.320;2023-02-26T09:14:11;4.40;99.90
29453;DHT22;16424;50.956;5.320;2023-02-26T09:16:36;4.80;99.90
29453;DHT22;16424;50.956;5.320;2023-02-26T09:19:04;5.00;99.90
29453;DHT22;16424;50.956;5.320;2023-02-26T09:21:30;5.40;99.90
29453;DHT22;16424;50.956;5.320;2023-02-26T09:23:56;5.30;99.90
29453;DHT22;16424;50.956;5.320;2023-02-26T09:26:21;4.90;99.90
29453;DHT22;16424;50.956;5.320;2023-02-26T09:28:47;5.00;99.90
29453;DHT22;16424;50.956;5.320;2023-02-26T09:31:13;4.70;99.90
29453;DHT22;16424;50.956;5.320;2023-02-26T09:33:38;4.60;99.90
29453;DHT22;16424;50.956;5.320;2023-02-26T09:36:05;4.70;99.90
29453;DHT22;16424;50.956;5.320;2023-02-26T09:38:30;5.40;99.90
29453;DHT22;16424;50.956;5.320;2023-02-26T09:41:03;5.40;99.90
29453;DHT22;16424;50.956;5.320;2023-02-26T09:51:45;4.40;99.90
29453;DHT22;16424;50.956;5.320;2023-02-26T09:54:25;4.60;99.90
29453;DHT22;16424;50.956;5.320;2023-02-26T09:56:52;5.00;99.90
29453;DHT22;16424;50.956;5.320;2023-02-26T09:59:19;5.10;99.90
29453;DHT22;16424;50.956;5.320;2023-02-26T10:01:54;4.80;99.90
29453;DHT22;16424;50.956;5.320;2023-02-26T10:04:48;4.50;99.90
29453;DHT22;16424;50.956;5.320;2023-02-26T10:07:37;4.30;99.90
29453;DHT22;16424;50.956;5.320;2023-02-26T10:13:43;4.00;99.90
29453;DHT22;16424;50.956;5.320;2023-02-26T10:16:17;4.00;99.90
29453;DHT22;16424;50.956;5.320;2023-02-26T10:18:51;3.90;99.90
29453;DHT22;16424;50.956;5.320;2023-02-26T10:21:27;3.80;99.90
29453;DHT22;16424;50.956;5.320;2023-02-26T10:23:56;3.90;99.90
29453;DHT22;16424;50.956;5.320;2023-02-26T10:26:29;4.20;99.90
29453;DHT22;16424;50.956;5.320;2023-02-26T10:40:08;3.80;99.90
29453;DHT22;16424;50.956;5.320;2023-02-26T10:45:22;3.50;99.90
29453;DHT22;16424;50.956;5.320;2023-02-26T10:48:27;3.70;99.90
29453;DHT22;16424;50.956;5.320;2023-02-26T10:50:58;3.80;99.90
29453;DHT22;16424;50.956;5.320;2023-02-26T10:53:26;4.10;99.90
29453;DHT22;16424;50.956;5.320;2023-02-26T10:56:02;4.20;99.90
29453;DHT22;16424;50.956;5.320;2023-02-26T10:58:29;4.20;99.90
29453;DHT22;16424;50.956;5.320;2023-02-26T11:00:55;4.00;99.90
29453;DHT22;16424;50.956;5.320;2023-02-26T11:03:33;4.00;99.90
29453;DHT22;16424;50.956;5.320;2023-02-26T11:06:00;4.20;99.90
29453;DHT22;16424;50.956;5.320;2023-02-26T11:08:39;4.40;99.90
29453;DHT22;16424;50.956;5.320;2023-02-26T11:11:06;4.50;99.90
29453;DHT22;16424;50.956;5.320;2023-02-26T11:13:33;4.50;99.90
29453;DHT22;16424;50.956;5.320;2023-02-26T11:16:12;4.40;99.90
29453;DHT22;16424;50.956;5.320;2023-02-26T11:18:41;4.50;99.90
29453;DHT22;16424;50.956;5.320;2023-02-26T11:21:12;4.20;99.90
29453;DHT22;16424;50.956;5.320;2023-02-26T11:23:42;4.50;99.90
29453;DHT22;16424;50.956;5.320;2023-02-26T11:26:15;4.60;99.90
29453;DHT22;16424;50.956;5.320;2023-02-26T11:28:44;4.70;99.90
29453;DHT22;16424;50.956;5.320;2023-02-26T11:31:15;4.60;99.90
29453;DHT22;16424;50.956;5.320;2023-02-26T11:33:50;4.80;99.90
29453;DHT22;16424;50.956;5.320;2023-02-26T11:36:19;5.00;99.90
29453;DHT22;16424;50.956;5.320;2023-02-26T11:38:51;5.10;99.90
29453;DHT22;16424;50.956;5.320;2023-02-26T11:41:17;5.20;99.90
29453;DHT22;16424;50.956;5.320;2023-02-26T11:43:47;5.20;99.90
29453;DHT22;16424;50.956;5.320;2023-02-26T11:46:13;5.50;99.90
29453;DHT22;16424;50.956;5.320;2023-02-26T11:48:47;5.50;99.90
29453;DHT22;16424;50.956;5.320;2023-02-26T11:51:24;5.60;99.90
29453;DHT22;16424;50.956;5.320;2023-02-26T11:53:55;5.20;99.90
29453;DHT22;16424;50.956;5.320;2023-02-26T11:56:31;5.20;99.90
29453;DHT22;16424;50.956;5.320;2023-02-26T11:59:05;5.40;99.90
29453;DHT22;16424;50.956;5.320;2023-02-26T12:01:35;5.40;99.90
29453;DHT22;16424;50.956;5.320;2023-02-26T12:04:02;4.90;99.90
29453;DHT22;16424;50.956;5.320;2023-02-26T12:06:27;4.90;99.90
29453;DHT22;16424;50.956;5.320;2023-02-26T12:08:53;4.90;99.90
29453;DHT22;16424;50.956;5.320;2023-02-26T12:11:37;4.90;99.90
29453;DHT22;16424;50.956;5.320;2023-02-26T12:27:12;5.70;99.90
29453;DHT22;16424;50.956;5.320;2023-02-26T12:29:55;5.90;99.90
29453;DHT22;16424;50.956;5.320;2023-02-26T12:35:24;5.70;99.90
29453;DHT22;16424;50.956;5.320;2023-02-26T12:43:48;5.60;99.90
29453;DHT22;16424;50.956;5.320;2023-02-26T12:48:57;5.80;99.90
29453;DHT22;16424;50.956;5.320;2023-02-26T12:57:39;5.80;99.90
29453;DHT22;16424;50.956;5.320;2023-02-26T13:06:13;5.80;99.90
29453;DHT22;16424;50.956;5.320;2023-02-26T13:08:57;5.90;99.90
29453;DHT22;16424;50.956;5.320;2023-02-26T13:14:51;5.80;99.90
29453;DHT22;16424;50.956;5.320;2023-02-26T13:20:20;5.70;99.90
29453;DHT22;16424;50.956;5.320;2023-02-26T13:28:10;4.80;99.90
29453;DHT22;16424;50.956;5.320;2023-02-26T13:30:46;4.90;99.90
29453;DHT22;16424;50.956;5.320;2023-02-26T13:33:18;5.20;99.90
29453;DHT22;16424;50.956;5.320;2023-02-26T13:35:44;5.40;99.90
29453;DHT22;16424;50.956;5.320;2023-02-26T13:38:19;5.40;99.90
29453;DHT22;16424;50.956;5.320;2023-02-26T13:51:52;6.50;99.90
29453;DHT22;16424;50.956;5.320;2023-02-26T14:02:50;5.50;99.90
29453;DHT22;16424;50.956;5.320;2023-02-26T14:11:01;5.70;99.90
29453;DHT22;16424;50.956;5.320;2023-02-26T14:13:38;5.60;99.90
29453;DHT22;16424;50.956;5.320;2023-02-26T14:16:21;5.70;99.90
29453;DHT22;16424;50.956;5.320;2023-02-26T14:18:48;6.00;99.90
29453;DHT22;16424;50.956;5.320;2023-02-26T14:23:49;6.40;99.90
29453;DHT22;16424;50.956;5.320;2023-02-26T14:26:18;6.50;99.90
29453;DHT22;16424;50.956;5.320;2023-02-26T14:28:58;6.20;99.90
29453;DHT22;16424;50.956;5.320;2023-02-26T14:31:53;6.20;99.90
29453;DHT22;16424;50.956;5.320;2023-02-26T14:34:24;6.00;99.90
29453;DHT22;16424;50.956;5.320;2023-02-26T14:36:53;5.80;99.90
29453;DHT22;16424;50.956;5.320;2023-02-26T14:39:35;5.90;99.90
29453;DHT22;16424;50.956;5.320;2023-02-26T14:42:05;5.80;99.90
29453;DHT22;16424;50.956;5.320;2023-02-26T14:44:39;5.90;99.90
29453;DHT22;16424;50.956;5.320;2023-02-26T14:47:05;5.80;99.90
29453;DHT22;16424;50.956;5.320;2023-02-26T14:49:34;5.70;99.90
29453;DHT22;16424;50.956;5.320;2023-02-26T14:54:49;5.50;99.90
29453;DHT22;16424;50.956;5.320;2023-02-26T15:00:21;5.60;99.90
29453;DHT22;16424;50.956;5.320;2023-02-26T15:05:57;5.70;99.90
29453;DHT22;16424;50.956;5.320;2023-02-26T15:08:29;5.70;99.90
29453;DHT22;16424;50.956;5.320;2023-02-26T15:19:54;5.40;99.90
29453;DHT22;16424;50.956;5.320;2023-02-26T15:24:58;5.20;99.90
29453;DHT22;16424;50.956;5.320;2023-02-26T15:27:29;5.30;99.90
29453;DHT22;16424;50.956;5.320;2023-02-26T15:29:55;5.40;99.90
29453;DHT22;16424;50.956;5.320;2023-02-26T15:32:29;5.40;99.90
29453;DHT22;16424;50.956;5.320;2023-02-26T15:35:17;5.50;99.90
29453;DHT22;16424;50.956;5.320;2023-02-26T15:37:55;5.70;99.90
29453;DHT22;16424;50.956;5.320;2023-02-26T15:40:23;5.70;99.90
29453;DHT22;16424;50.956;5.320;2023-02-26T15:42:56;5.60;99.90
29453;DHT22;16424;50.956;5.320;2023-02-26T15:46:05;5.50;99.90
29453;DHT22;16424;50.956;5.320;2023-02-26T15:48:33;5.40;99.90
29453;DHT22;16424;50.956;5.320;2023-02-26T15:51:04;5.30;99.90
29453;DHT22;16424;50.956;5.320;2023-02-26T15:53:47;5.20;99.90
29453;DHT22;16424;50.956;5.320;2023-02-26T15:56:20;5.30;99.90
29453;DHT22;16424;50.956;5.320;2023-02-26T16:01:26;5.40;99.90
29453;DHT22;16424;50.956;5.320;2023-02-26T16:03:55;5.40;99.90
29453;DHT22;16424;50.956;5.320;2023-02-26T16:06:35;5.40;99.90
29453;DHT22;16424;50.956;5.320;2023-02-26T16:09:04;5.50;99.90
29453;DHT22;16424;50.956;5.320;2023-02-26T16:11:37;5.50;99.90
29453;DHT22;16424;50.956;5.320;2023-02-26T16:14:05;5.40;99.90
29453;DHT22;16424;50.956;5.320;2023-02-26T16:16:41;5.30;99.90
29453;DHT22;16424;50.956;5.320;2023-02-26T16:19:16;5.40;99.90
29453;DHT22;16424;50.956;5.320;2023-02-26T16:21:43;5.50;99.90
29453;DHT22;16424;50.956;5.320;2023-02-26T16:24:15;5.50;99.90
29453;DHT22;16424;50.956;5.320;2023-02-26T16:26:46;5.30;99.90
29453;DHT22;16424;50.956;5.320;2023-02-26T16:29:25;5.10;99.90
29453;DHT22;16424;50.956;5.320;2023-02-26T16:31:55;5.10;99.90
29453;DHT22;16424;50.956;5.320;2023-02-26T16:36:49;5.10;99.90
29453;DHT22;16424;50.956;5.320;2023-02-26T16:39:29;5.10;99.90
29453;DHT22;16424;50.956;5.320;2023-02-26T16:47:48;5.00;99.90
29453;DHT22;16424;50.956;5.320;2023-02-26T16:50:19;5.00;99.90
29453;DHT22;16424;50.956;5.320;2023-02-26T16:52:51;4.90;99.90
29453;DHT22;16424;50.956;5.320;2023-02-26T16:55:18;5.00;99.90
29453;DHT22;16424;50.956;5.320;2023-02-26T16:57:45;5.00;99.90
29453;DHT22;16424;50.956;5.320;2023-02-26T17:00:16;5.00;99.90
29453;DHT22;16424;50.956;5.320;2023-02-26T17:02:46;5.00;99.90
29453;DHT22;16424;50.956;5.320;2023-02-26T17:05:22;4.90;99.90
29453;DHT22;16424;50.956;5.320;2023-02-26T17:07:54;4.80;99.90
29453;DHT22;16424;50.956;5.320;2023-02-26T17:10:30;4.80;99.90
29453;DHT22;16424;50.956;5.320;2023-02-26T17:15:45;4.90;99.90
29453;DHT22;16424;50.956;5.320;2023-02-26T17:18:11;4.90;99.90
29453;DHT22;16424;50.956;5.320;2023-02-26T17:20:38;4.90;99.90
29453;DHT22;16424;50.956;5.320;2023-02-26T17:23:06;4.90;99.90
29453;DHT22;16424;50.956;5.320;2023-02-26T17:25:38;4.90;99.90
29453;DHT22;16424;50.956;5.320;2023-02-26T17:28:05;4.70;99.90
29453;DHT22;16424;50.956;5.320;2023-02-26T17:30:31;4.60;99.90
29453;DHT22;16424;50.956;5.320;2023-02-26T17:32:59;4.50;99.90
29453;DHT22;16424;50.956;5.320;2023-02-26T17:35:26;4.50;99.90
29453;DHT22;16424;50.956;5.320;2023-02-26T17:38:11;4.50;99.90
29453;DHT22;16424;50.956;5.320;2023-02-26T17:40:42;4.70;99.90
29453;DHT22;16424;50.956;5.320;2023-02-26T17:43:08;4.70;99.90
29453;DHT22;16424;50.956;5.320;2023-02-26T17:45:35;4.60;99.90
29453;DHT22;16424;50.956;5.320;2023-02-26T17:48:01;4.60;99.90
29453;DHT22;16424;50.956;5.320;2023-02-26T17:53:03;4.60;99.90
29453;DHT22;16424;50.956;5.320;2023-02-26T17:55:29;4.50;99.90
29453;DHT22;16424;50.956;5.320;2023-02-26T17:57:55;4.50;99.90
29453;DHT22;16424;50.956;5.320;2023-02-26T18:00:21;4.40;99.90
29453;DHT22;16424;50.956;5.320;2023-02-26T18:02:47;4.30;99.90
29453;DHT22;16424;50.956;5.320;2023-02-26T18:05:15;4.20;99.90
29453;DHT22;16424;50.956;5.320;2023-02-26T18:07:41;4.30;99.90
29453;DHT22;16424;50.956;5.320;2023-02-26T18:10:19;4.20;99.90
29453;DHT22;16424;50.956;5.320;2023-02-26T18:12:44;4.20;99.90
29453;DHT22;16424;50.956;5.320;2023-02-26T18:15:11;4.20;99.90
29453;DHT22;16424;50.956;5.320;2023-02-26T18:17:37;4.10;99.90
29453;DHT22;16424;50.956;5.320;2023-02-26T18:20:03;4.10;99.90
29453;DHT22;16424;50.956;5.320;2023-02-26T18:22:31;4.10;99.90
29453;DHT22;16424;50.956;5.320;2023-02-26T18:24:57;4.20;99.90
29453;DHT22;16424;50.956;5.320;2023-02-26T18:27:24;4.10;99.90
29453;DHT22;16424;50.956;5.320;2023-02-26T18:29:51;4.20;99.90
29453;DHT22;16424;50.956;5.320;2023-02-26T18:32:20;4.30;99.90
29453;DHT22;16424;50.956;5.320;2023-02-26T18:34:46;4.30;99.90
29453;DHT22;16424;50.956;5.320;2023-02-26T18:37:17;4.30;99.90
29453;DHT22;16424;50.956;5.320;2023-02-26T18:39:43;4.30;99.90
29453;DHT22;16424;50.956;5.320;2023-02-26T18:42:21;4.20;99.90
29453;DHT22;16424;50.956;5.320;2023-02-26T18:44:48;4.10;99.90
29453;DHT22;16424;50.956;5.320;2023-02-26T18:47:14;4.10;99.90
29453;DHT22;16424;50.956;5.320;2023-02-26T18:49:39;3.90;99.90
29453;DHT22;16424;50.956;5.320;2023-02-26T18:52:05;3.90;99.90
29453;DHT22;16424;50.956;5.320;2023-02-26T18:54:31;3.70;99.90
29453;DHT22;16424;50.956;5.320;2023-02-26T18:56:56;3.70;99.90
29453;DHT22;16424;50.956;5.320;2023-02-26T18:59:22;3.60;99.90
29453;DHT22;16424;50.956;5.320;2023-02-26T19:01:48;3.50;99.90
29453;DHT22;16424;50.956;5.320;2023-02-26T19:04:14;3.40;99.90
29453;DHT22;16424;50.956;5.320;2023-02-26T19:06:40;3.40;99.90
29453;DHT22;16424;50.956;5.320;2023-02-26T19:09:06;3.30;99.90
29453;DHT22;16424;50.956;5.320;2023-02-26T19:11:32;3.30;99.90
29453;DHT22;16424;50.956;5.320;2023-02-26T19:13:58;3.20;99.90